Chignik Lagoon, Alaska
Current Conditions -  °F | °C
As of 4:36 PM on Friday 28 Nov 2014 (Local Time) from PAJC Reporting Station
Broken Clouds Broken Clouds  
Wind Chill: 32°   Ceiling: 3900
Heat Index: 39°   Visibility: 10mi
Dew Point: 28°   Wind: 12mph
Humidity: 65%   Direction: 260°W
Pressure: 30.04"   Gusts: 17mph
Location:  56.28°N, 158.51°W
Report Text: PAJC 290136Z AUTO 26010G15KT 10SM BKN039 04/M02 A3004 RMK AO1
Loading
Personal Weather Stations






























Interactive Weather Map New forecast layout! Learn more

10-Day Weather Forecast

Advertisements
Track Severe Weather on mobile